Time;durP1;ratioP1;P1;durP2;ratioP2;P2;SDS_P1;SDS_P2;PMS_P1;PMS_P2;Temp;Humidity;BMP_temperature;BMP_pressure;BME280_temperature;BME280_humidity;BME280_pressure;Samples;Min_cycle;Max_cycle;Signal;HPM_P1;HPM_P2
2023/07/06 00:02:05;;;;;;;9.18;6.35;;;;;;;27.64;45.33;99479.97;4485617;32;33803;-75
2023/07/06 00:04:36;;;;;;;10.10;6.30;;;;;;;27.63;45.32;99485.72;4485292;32;33196;-73
2023/07/06 00:07:04;;;;;;;8.50;5.53;;;;;;;27.63;45.28;99475.56;4485301;32;34887;-73
2023/07/06 00:09:35;;;;;;;8.50;6.37;;;;;;;27.62;45.28;99465.69;4485177;32;34896;-70
2023/07/06 00:12:03;;;;;;;9.45;6.05;;;;;;;27.61;45.24;99466.78;4485515;32;33835;-75
2023/07/06 00:14:31;;;;;;;9.05;6.25;;;;;;;27.62;45.23;99475.84;4485315;32;33205;-75
2023/07/06 00:17:12;;;;;;;10.63;6.37;;;;;;;27.61;45.25;99483.25;4485144;32;34343;-72
2023/07/06 00:19:40;;;;;;;7.90;5.87;;;;;;;27.62;45.21;99475.84;4485216;32;34888;-75
2023/07/06 00:22:09;;;;;;;10.43;6.65;;;;;;;27.59;45.22;99482.66;4485079;32;33475;-75
2023/07/06 00:24:37;;;;;;;10.32;6.22;;;;;;;27.59;45.23;99490.06;4471442;32;33191;-76
2023/07/06 00:27:05;;;;;;;8.65;6.10;;;;;;;27.58;45.23;99483.75;4470989;32;34715;-74
2023/07/06 00:29:38;;;;;;;8.55;6.07;;;;;;;27.59;45.16;99492.81;4485120;32;34082;-75
2023/07/06 00:32:27;;;;;;;10.50;6.47;;;;;;;27.58;45.13;99483.75;4498943;31;34699;-73
2023/07/06 00:34:55;;;;;;;9.77;5.75;;;;;;;27.58;45.11;99486.50;4500842;31;34364;-75
2023/07/06 00:37:23;;;;;;;8.77;6.07;;;;;;;27.58;45.05;99483.75;4500977;31;34801;-71
2023/07/06 00:39:51;;;;;;;8.23;5.97;;;;;;;27.57;45.06;99479.38;4500943;31;34716;-73
2023/07/06 00:42:20;;;;;;;8.98;5.62;;;;;;;27.57;45.05;99486.78;4500859;31;33953;-74
2023/07/06 00:44:59;;;;;;;8.73;5.90;;;;;;;27.56;45.05;99485.09;4500893;31;33543;-73
2023/07/06 00:47:30;;;;;;;10.23;6.18;;;;;;;27.57;45.01;99481.28;4499580;31;34056;-73
2023/07/06 00:50:02;;;;;;;9.93;5.90;;;;;;;27.54;45.01;99482.63;4500855;31;33810;-69
2023/07/06 00:52:30;;;;;;;8.90;5.97;;;;;;;27.54;44.99;99488.09;4499509;31;34250;-74
2023/07/06 00:55:00;;;;;;;8.50;5.85;;;;;;;27.54;44.99;99496.31;4499374;31;34349;-76
2023/07/06 00:57:27;;;;;;;8.20;6.00;;;;;;;27.53;45.00;99493.84;4486739;31;33810;-75
2023/07/06 00:59:55;;;;;;;9.48;5.62;;;;;;;27.53;44.97;99493.84;4486503;31;34317;-73
2023/07/06 01:02:22;;;;;;;8.55;5.03;;;;;;;27.53;44.97;99494.69;4470714;32;34887;-76
2023/07/06 01:04:51;;;;;;;10.65;5.80;;;;;;;27.52;44.96;99501.25;4483798;32;33414;-74
2023/07/06 01:07:21;;;;;;;9.02;5.37;;;;;;;27.51;44.96;99496.84;4483750;32;34261;-73
2023/07/06 01:09:49;;;;;;;7.43;5.47;;;;;;;27.51;44.96;99498.75;4470828;32;33885;-74
2023/07/06 01:12:17;;;;;;;7.05;4.90;;;;;;;27.52;44.89;99492.22;4482852;32;34695;-74
2023/07/06 01:14:45;;;;;;;7.45;5.28;;;;;;;27.52;44.86;99492.22;4483502;32;34290;-75
2023/07/06 01:17:20;;;;;;;8.68;5.25;;;;;;;27.51;44.82;99490.53;4470784;32;33917;-73
2023/07/06 01:20:13;;;;;;;8.55;5.65;;;;;;;27.49;44.78;99493.53;4471326;32;33863;-75
2023/07/06 01:23:05;;;;;;;12.15;5.93;;;;;;;27.52;44.70;99495.78;4483302;32;33744;-76
2023/07/06 01:25:51;;;;;;;7.45;5.53;;;;;;;27.49;44.64;99490.81;4484728;32;34477;-73
2023/07/06 01:29:11;;;;;;;9.45;5.10;;;;;;;27.45;44.64;99490.50;4484917;32;33955;-72
2023/07/06 01:31:46;;;;;;;7.50;5.22;;;;;;;27.48;44.56;99483.69;4449546;31;34210;-73
2023/07/06 01:34:31;;;;;;;8.35;4.82;;;;;;;27.44;44.52;99482.53;4483756;32;34164;-70
2023/07/06 01:37:19;;;;;;;8.20;4.78;;;;;;;27.43;44.50;99484.47;4483334;32;34261;-73
2023/07/06 01:39:48;;;;;;;6.37;4.35;;;;;;;27.44;44.43;99486.09;4483561;32;33940;-70
2023/07/06 01:42:26;;;;;;;7.93;5.47;;;;;;;27.40;44.44;99484.97;4484535;32;34732;-75
2023/07/06 01:44:57;;;;;;;7.95;5.00;;;;;;;27.40;44.37;99482.22;4484561;32;34155;-74
2023/07/06 01:47:25;;;;;;;7.85;4.95;;;;;;;27.39;44.29;99477.84;4483297;32;34239;-73
2023/07/06 01:49:53;;;;;;;7.40;4.10;;;;;;;27.39;44.18;99480.59;4483440;32;34044;-75
2023/07/06 01:52:31;;;;;;;6.93;4.07;;;;;;;27.39;44.12;99474.28;4484554;32;34454;-76
2023/07/06 01:55:16;;;;;;;7.85;4.37;;;;;;;27.36;44.08;99467.41;4483269;32;34842;-75
2023/07/06 01:58:05;;;;;;;8.88;4.72;;;;;;;27.36;44.03;99464.66;4483339;32;33306;-75
2023/07/06 02:00:35;;;;;;;7.15;4.10;;;;;;;27.34;43.99;99472.31;4483525;32;33869;-75
2023/07/06 02:03:05;;;;;;;7.18;4.50;;;;;;;27.33;43.99;99467.94;4483329;32;33920;-73
2023/07/06 02:05:36;;;;;;;8.55;4.55;;;;;;;27.34;43.97;99476.97;4483194;32;33770;-68
2023/07/06 02:08:08;;;;;;;7.10;4.20;;;;;;;27.33;43.95;99473.41;4470726;32;33200;-73
2023/07/06 02:10:35;;;;;;;6.93;4.22;;;;;;;27.32;43.90;99470.91;4483024;32;33911;-75
2023/07/06 02:13:03;;;;;;;7.28;4.50;;;;;;;27.31;43.85;99466.53;4483209;32;33519;-75
2023/07/06 02:15:31;;;;;;;8.02;5.03;;;;;;;27.30;43.85;99462.97;4483222;32;34483;-75
2023/07/06 02:17:58;;;;;;;8.52;4.22;;;;;;;27.31;43.87;99466.53;4484302;32;34136;-74
2023/07/06 02:20:26;;;;;;;7.43;4.32;;;;;;;27.30;43.84;99471.19;4484408;32;34556;-74
2023/07/06 02:22:54;;;;;;;6.62;4.20;;;;;;;27.29;43.84;99471.47;4484438;32;33927;-72
2023/07/06 02:25:23;;;;;;;7.57;4.57;;;;;;;27.29;43.86;99476.94;4484211;32;33716;-71
2023/07/06 02:27:51;;;;;;;7.70;4.40;;;;;;;27.28;43.85;99481.59;4483177;32;33201;-72
2023/07/06 02:30:18;;;;;;;9.07;4.25;;;;;;;27.29;43.83;99477.75;4482895;32;33146;-74
2023/07/06 02:32:46;;;;;;;6.93;4.55;;;;;;;27.28;43.82;99488.94;4482863;32;33880;-73
2023/07/06 02:35:13;;;;;;;7.60;4.35;;;;;;;27.27;43.84;99488.13;4484128;32;34526;-69
2023/07/06 02:37:41;;;;;;;7.45;4.10;;;;;;;27.27;43.83;99493.59;4484597;32;33372;-73
2023/07/06 02:40:10;;;;;;;7.25;3.97;;;;;;;27.25;43.82;99490.31;4484308;32;33858;-74
2023/07/06 02:42:41;;;;;;;6.72;4.18;;;;;;;27.26;43.85;99499.34;4483405;32;33981;-75
2023/07/06 02:45:10;;;;;;;10.25;4.43;;;;;;;27.24;43.88;99502.38;4484104;32;34682;-71
2023/07/06 02:47:38;;;;;;;6.43;4.32;;;;;;;27.22;43.91;99499.03;4483966;32;33501;-76
2023/07/06 02:50:11;;;;;;;6.72;4.05;;;;;;;27.23;43.86;99505.34;4484308;32;33940;-75
2023/07/06 02:52:44;;;;;;;6.90;4.00;;;;;;;27.22;43.83;99504.53;4483939;32;34131;-75
2023/07/06 02:55:12;;;;;;;7.82;4.50;;;;;;;27.21;43.80;99503.69;4484099;32;34215;-72
2023/07/06 02:57:40;;;;;;;6.75;3.75;;;;;;;27.21;43.79;99497.41;4484127;32;33426;-74
2023/07/06 03:00:12;;;;;;;7.95;3.72;;;;;;;27.20;43.76;99496.56;4499084;31;34228;-74
2023/07/06 03:02:40;;;;;;;7.55;3.83;;;;;;;27.20;43.76;99493.00;4498618;31;34570;-75
2023/07/06 03:05:08;;;;;;;6.53;3.75;;;;;;;27.18;43.78;99498.72;4498645;31;33873;-75
2023/07/06 03:07:36;;;;;;;6.18;3.85;;;;;;;27.18;43.75;99493.25;4498368;31;33633;-73
2023/07/06 03:10:05;;;;;;;7.40;4.20;;;;;;;27.19;43.75;99503.16;4499719;31;33943;-71
2023/07/06 03:12:36;;;;;;;7.95;3.40;;;;;;;27.19;43.70;99505.87;4499607;31;34949;-74
2023/07/06 03:15:06;;;;;;;6.72;3.50;;;;;;;27.19;43.67;99505.06;4499534;31;33766;-74
2023/07/06 03:17:33;;;;;;;6.05;3.70;;;;;;;27.19;43.63;99507.78;4499600;31;34110;-75
2023/07/06 03:20:01;;;;;;;6.20;3.92;;;;;;;27.18;43.64;99506.13;4498177;31;33796;-74
2023/07/06 03:22:31;;;;;;;6.20;3.40;;;;;;;27.17;43.65;99504.47;4499503;31;34027;-74
2023/07/06 03:24:59;;;;;;;6.87;3.62;;;;;;;27.18;43.64;99506.13;4499577;31;34229;-74
2023/07/06 03:27:27;;;;;;;7.55;3.67;;;;;;;27.16;43.60;99511.88;4499079;31;33499;-76
2023/07/06 03:29:54;;;;;;;6.65;3.70;;;;;;;27.15;43.61;99507.47;4499363;31;33864;-73
2023/07/06 03:32:22;;;;;;;7.07;3.37;;;;;;;27.13;43.65;99506.91;4483284;32;35643;-75
2023/07/06 03:34:50;;;;;;;5.50;3.20;;;;;;;27.14;43.64;99511.31;4470360;32;33703;-74
2023/07/06 03:37:18;;;;;;;6.28;4.00;;;;;;;27.14;43.64;99511.31;4485584;32;33230;-72
2023/07/06 03:39:47;;;;;;;6.57;3.62;;;;;;;27.14;43.61;99519.53;4485572;32;33778;-74
2023/07/06 03:42:16;;;;;;;7.43;3.72;;;;;;;27.13;43.58;99526.06;4485339;32;34033;-74
2023/07/06 03:44:45;;;;;;;5.97;3.28;;;;;;;27.13;43.56;99523.31;4485501;32;34524;-75
2023/07/06 03:47:13;;;;;;;5.55;3.25;;;;;;;27.14;43.53;99544.19;4485478;32;34165;-74
2023/07/06 03:49:41;;;;;;;6.25;3.30;;;;;;;27.13;43.56;99547.16;4485298;32;33774;-73
2023/07/06 03:52:09;;;;;;;5.40;3.08;;;;;;;27.11;43.55;99544.69;4485406;32;33915;-72
2023/07/06 03:54:37;;;;;;;6.32;3.28;;;;;;;27.13;43.50;99549.88;4485389;32;33852;-73
2023/07/06 03:57:05;;;;;;;7.50;3.10;;;;;;;27.13;43.50;99555.38;4485245;32;34118;-72
2023/07/06 03:59:33;;;;;;;6.17;3.10;;;;;;;27.11;43.46;99552.91;4485336;32;33876;-75
2023/07/06 04:02:01;;;;;;;7.37;3.00;;;;;;;27.13;43.43;99558.94;4485423;32;33941;-74
2023/07/06 04:04:29;;;;;;;7.32;3.50;;;;;;;27.12;43.43;99560.03;4485239;32;34173;-76
2023/07/06 04:06:56;;;;;;;5.40;2.87;;;;;;;27.11;43.43;99563.84;4485268;32;33370;-73
2023/07/06 04:09:25;;;;;;;6.62;3.15;;;;;;;27.11;43.43;99563.84;4485304;32;34107;-75
2023/07/06 04:11:53;;;;;;;6.40;3.03;;;;;;;27.10;43.42;99573.16;4471307;32;34135;-75
2023/07/06 04:14:24;;;;;;;5.50;2.70;;;;;;;27.10;43.37;99575.91;4485244;32;34709;-75
2023/07/06 04:16:54;;;;;;;4.93;2.90;;;;;;;27.10;43.38;99581.37;4459006;32;33436;-69
2023/07/06 04:19:22;;;;;;;6.15;3.15;;;;;;;27.08;43.44;99583.53;4471456;32;33881;-75
2023/07/06 04:21:53;;;;;;;8.20;3.58;;;;;;;27.09;43.43;99581.59;4485211;32;34360;-75
2023/07/06 04:24:21;;;;;;;6.15;3.10;;;;;;;27.08;43.41;99591.75;4485102;32;33876;-72
2023/07/06 04:26:51;;;;;;;5.25;3.15;;;;;;;27.09;43.42;99573.38;4485284;32;33263;-74
2023/07/06 04:29:20;;;;;;;6.00;3.00;;;;;;;27.09;43.37;99579.72;4485095;32;33868;-75
2023/07/06 04:31:47;;;;;;;5.68;3.22;;;;;;;27.09;43.36;99590.69;4496807;31;34900;-75
2023/07/06 04:34:15;;;;;;;5.55;2.90;;;;;;;27.08;43.37;99596.34;4500814;31;34637;-69
2023/07/06 04:36:42;;;;;;;5.20;3.12;;;;;;;27.08;43.30;99583.53;4500938;31;33096;-75
2023/07/06 04:39:10;;;;;;;8.90;3.10;;;;;;;27.08;43.33;99582.66;4500688;31;34632;-72
2023/07/06 04:41:37;;;;;;;5.28;2.80;;;;;;;27.08;43.33;99585.41;4500848;31;34083;-74
2023/07/06 04:44:06;;;;;;;7.45;3.28;;;;;;;27.07;43.31;99591.97;4499656;31;33783;-74
2023/07/06 04:46:33;;;;;;;7.05;2.47;;;;;;;27.07;43.31;99591.97;4499747;31;33604;-74
2023/07/06 04:49:02;;;;;;;5.95;2.83;;;;;;;27.07;43.31;99581.03;4500799;31;33503;-75
2023/07/06 04:51:30;;;;;;;6.57;3.12;;;;;;;27.06;43.27;99585.66;4500843;31;34091;-72
2023/07/06 04:53:58;;;;;;;5.47;3.00;;;;;;;27.07;43.27;99597.44;4500553;31;34004;-74
2023/07/06 04:56:26;;;;;;;5.82;2.70;;;;;;;27.06;43.21;99596.63;4500870;31;33490;-75
2023/07/06 04:58:56;;;;;;;5.12;2.78;;;;;;;27.07;43.18;99601.00;4500954;31;33916;-71
2023/07/06 05:01:26;;;;;;;5.30;2.60;;;;;;;27.06;43.25;99602.09;4500743;31;34438;-74
2023/07/06 05:03:54;;;;;;;6.75;3.22;;;;;;;27.06;43.22;99596.63;4500704;31;34182;-75
2023/07/06 05:06:24;;;;;;;5.95;2.70;;;;;;;27.07;43.20;99589.22;4500564;31;33638;-73
2023/07/06 05:08:52;;;;;;;6.22;2.92;;;;;;;27.06;43.20;99596.63;4500611;31;33793;-75
2023/07/06 05:11:20;;;;;;;6.20;3.10;;;;;;;27.06;43.20;99593.88;4495129;31;33849;-75
2023/07/06 05:13:48;;;;;;;6.50;2.72;;;;;;;27.06;43.22;99593.88;4483517;32;34087;-66
2023/07/06 05:16:16;;;;;;;6.35;3.03;;;;;;;27.06;43.32;99601.28;4483647;32;33464;-66
2023/07/06 05:18:43;;;;;;;6.03;2.87;;;;;;;27.06;43.41;99609.50;4484783;32;33660;-66
2023/07/06 05:21:11;;;;;;;7.72;2.72;;;;;;;27.05;43.46;99614.16;4484687;32;34871;-66
2023/07/06 05:23:39;;;;;;;6.12;2.97;;;;;;;27.04;43.51;99600.69;4484775;32;33746;-66
2023/07/06 05:26:08;;;;;;;4.82;2.58;;;;;;;27.04;43.56;99612.47;4484788;32;33328;-66
2023/07/06 05:28:36;;;;;;;5.10;2.78;;;;;;;27.04;43.61;99608.91;4484483;32;33512;-66
2023/07/06 05:31:03;;;;;;;5.22;2.95;;;;;;;27.05;43.62;99630.56;4484595;32;33565;-66
2023/07/06 05:33:32;;;;;;;5.32;2.90;;;;;;;27.04;43.67;99633.56;4486326;31;34659;-66
2023/07/06 05:36:00;;;;;;;6.77;3.20;;;;;;;27.05;43.72;99637.97;4500621;31;33397;-66
2023/07/06 05:38:28;;;;;;;6.62;2.90;;;;;;;27.05;43.76;99630.56;4500426;31;33867;-66
2023/07/06 05:41:02;;;;;;;7.07;3.00;;;;;;;27.05;43.81;99632.50;4497093;31;33772;-66
2023/07/06 05:43:30;;;;;;;6.35;2.83;;;;;;;27.04;43.87;99644.50;4499343;31;33636;-66
2023/07/06 05:45:58;;;;;;;7.07;2.85;;;;;;;27.05;43.90;99652.50;4500535;31;33368;-67
2023/07/06 05:48:25;;;;;;;6.18;3.22;;;;;;;27.05;43.94;99637.97;4500349;31;34586;-63
2023/07/06 05:50:53;;;;;;;10.20;3.90;;;;;;;27.05;43.99;99636.06;4500355;31;33959;-66
2023/07/06 05:53:20;;;;;;;13.50;3.35;;;;;;;27.05;44.10;99627.84;4486906;31;34959;-67
2023/07/06 05:55:48;;;;;;;17.75;3.72;;;;;;;27.05;44.16;99614.16;4484343;32;34431;-66
2023/07/06 05:58:16;;;;;;;10.20;3.75;;;;;;;27.06;44.22;99596.63;4487384;31;34000;-66
2023/07/06 06:00:44;;;;;;;13.30;3.45;;;;;;;27.07;44.29;99589.22;4500410;31;34020;-66
2023/07/06 06:03:12;;;;;;;10.93;3.30;;;;;;;27.07;44.35;99591.97;4500152;31;33809;-72
2023/07/06 06:05:39;;;;;;;12.68;3.15;;;;;;;27.07;44.37;99609.22;4500041;31;33356;-70
2023/07/06 06:08:07;;;;;;;8.77;3.22;;;;;;;27.06;44.36;99615.78;4500006;31;34854;-76
2023/07/06 06:10:35;;;;;;;12.60;3.12;;;;;;;27.07;44.36;99627.56;4500124;31;34622;-66
2023/07/06 06:13:03;;;;;;;10.45;3.15;;;;;;;27.08;44.33;99631.97;4498880;31;33959;-67
2023/07/06 06:15:30;;;;;;;11.65;3.47;;;;;;;27.09;44.32;99622.69;4498394;31;34475;-65
2023/07/06 06:18:02;;;;;;;7.97;3.58;;;;;;;27.09;44.31;99622.69;4498209;31;34061;-66
2023/07/06 06:20:30;;;;;;;9.83;3.33;;;;;;;27.09;44.32;99626.28;4496652;31;34210;-66
2023/07/06 06:22:59;;;;;;;9.27;3.12;;;;;;;27.11;44.27;99621.38;4498168;31;33536;-66
2023/07/06 06:25:26;;;;;;;7.10;2.75;;;;;;;27.10;44.30;99633.41;4496738;31;32958;-66
2023/07/06 06:27:54;;;;;;;8.05;3.30;;;;;;;27.10;44.26;99627.94;4498333;31;33919;-66
2023/07/06 06:30:21;;;;;;;6.43;2.95;;;;;;;27.11;44.27;99628.75;4491942;31;195937;-66
2023/07/06 06:32:49;;;;;;;7.05;3.10;;;;;;;27.13;44.25;99629.31;4497991;31;33755;-66
2023/07/06 06:35:23;;;;;;;7.20;3.05;;;;;;;27.13;44.25;99626.56;4498588;31;33070;-66
2023/07/06 06:37:51;;;;;;;8.40;3.28;;;;;;;27.12;44.26;99631.22;4500036;31;33827;-66
2023/07/06 06:40:19;;;;;;;10.70;3.17;;;;;;;27.13;44.23;99632.88;4498829;31;33764;-65
2023/07/06 06:42:48;;;;;;;6.57;2.97;;;;;;;27.13;44.23;99641.09;4498617;31;34066;-65
2023/07/06 06:45:16;;;;;;;5.93;2.80;;;;;;;27.14;44.21;99644.66;4498759;31;33596;-65
2023/07/06 06:47:44;;;;;;;6.97;3.08;;;;;;;27.14;44.19;99633.69;4498943;31;33987;-65
2023/07/06 06:50:16;;;;;;;6.45;2.87;;;;;;;27.13;44.19;99638.34;4500045;31;34356;-66
2023/07/06 06:52:44;;;;;;;7.25;3.12;;;;;;;27.14;44.17;99634.56;4498466;31;32683;-66
2023/07/06 06:55:12;;;;;;;8.00;3.05;;;;;;;27.15;44.17;99644.44;4498856;31;33403;-67
2023/07/06 06:57:40;;;;;;;7.87;2.67;;;;;;;27.16;44.17;99650.72;4499821;31;34146;-67
2023/07/06 07:00:14;;;;;;;8.70;3.28;;;;;;;27.16;44.16;99654.28;4499637;31;33729;-68
2023/07/06 07:02:42;;;;;;;8.23;3.17;;;;;;;27.16;44.15;99654.28;4499800;31;34008;-67
2023/07/06 07:05:11;;;;;;;8.43;2.97;;;;;;;27.18;44.15;99659.50;4500088;31;33370;-66
2023/07/06 07:07:38;;;;;;;6.70;2.65;;;;;;;27.17;44.14;99655.12;4499493;31;34691;-70
2023/07/06 07:10:09;;;;;;;7.15;3.20;;;;;;;27.17;44.12;99653.19;4498716;31;33770;-71
2023/07/06 07:12:38;;;;;;;7.55;3.10;;;;;;;27.17;44.12;99649.63;4499670;31;34687;-65
2023/07/06 07:15:08;;;;;;;5.07;2.97;;;;;;;27.17;44.13;99644.16;4498361;31;33356;-65
2023/07/06 07:17:36;;;;;;;6.47;2.60;;;;;;;27.18;44.14;99648.53;4498458;31;33830;-65
2023/07/06 07:20:05;;;;;;;6.12;2.92;;;;;;;27.19;44.13;99639.28;4499392;31;34890;-66
2023/07/06 07:22:33;;;;;;;8.07;2.97;;;;;;;27.20;44.12;99643.66;4499531;31;34399;-65
2023/07/06 07:25:02;;;;;;;6.30;2.78;;;;;;;27.21;44.11;99654.34;4499414;31;34259;-65
2023/07/06 07:27:30;;;;;;;10.60;3.00;;;;;;;27.20;44.11;99649.13;4497889;31;33848;-67
2023/07/06 07:29:58;;;;;;;8.02;3.15;;;;;;;27.20;44.09;99644.47;4499288;31;33856;-66
2023/07/06 07:32:29;;;;;;;5.93;2.90;;;;;;;27.20;44.11;99647.22;4499296;31;34924;-65
2023/07/06 07:34:58;;;;;;;5.70;2.70;;;;;;;27.21;44.10;99640.66;4499092;31;33749;-65
2023/07/06 07:37:26;;;;;;;6.75;2.97;;;;;;;27.21;44.09;99642.56;4499544;31;34029;-65
2023/07/06 07:39:55;;;;;;;7.60;3.05;;;;;;;27.21;44.09;99640.66;4497925;31;34761;-65
2023/07/06 07:42:25;;;;;;;5.87;2.72;;;;;;;27.24;44.09;99643.97;4497807;31;33697;-66
2023/07/06 07:44:57;;;;;;;;;;;;;;;27.24;44.07;99642.06;4499567;31;34298;-65
2023/07/06 07:47:27;;;;;;;6.22;2.97;;;;;;;27.33;43.86;99642.44;4498047;31;33156;-66
2023/07/06 07:49:55;;;;;;;6.28;2.85;;;;;;;27.26;44.00;99639.06;4499152;31;34887;-68
2023/07/06 07:52:22;;;;;;;6.18;2.80;;;;;;;27.23;44.06;99643.13;4499065;31;34512;-66
2023/07/06 07:54:52;;;;;;;5.15;2.58;;;;;;;27.21;44.08;99637.91;4498782;31;34674;-71
2023/07/06 07:57:20;;;;;;;5.65;2.72;;;;;;;27.21;44.10;99632.44;4499043;31;33944;-69
2023/07/06 07:59:50;;;;;;;6.12;3.03;;;;;;;27.23;44.07;99628.59;4498955;31;34783;-68
2023/07/06 08:02:18;;;;;;;6.62;2.67;;;;;;;27.23;44.08;99625.88;4498747;31;33996;-66
2023/07/06 08:04:47;;;;;;;7.62;2.97;;;;;;;27.22;44.10;99630.53;4498985;31;33260;-67
2023/07/06 08:07:15;;;;;;;6.62;2.92;;;;;;;27.24;44.07;99631.12;4498813;31;33787;-68
2023/07/06 08:09:43;;;;;;;6.22;2.70;;;;;;;27.25;44.04;99631.94;4498666;31;34019;-66
2023/07/06 08:12:11;;;;;;;5.00;2.58;;;;;;;27.24;44.06;99633.84;4498806;31;33386;-66
2023/07/06 08:14:41;;;;;;;6.65;2.85;;;;;;;27.24;44.06;99625.63;4498678;31;34372;-68
2023/07/06 08:17:10;;;;;;;6.30;2.67;;;;;;;27.25;44.09;99629.19;4498945;31;33643;-66
2023/07/06 08:19:38;;;;;;;5.53;2.22;;;;;;;27.25;44.07;99626.47;4498721;31;34401;-65
2023/07/06 08:22:26;;;;;;;6.32;2.70;;;;;;;27.26;44.06;99625.38;4500956;31;34547;-70
2023/07/06 08:24:53;;;;;;;4.90;2.40;;;;;;;27.26;44.05;99631.66;4501256;31;34453;-74
2023/07/06 08:27:21;;;;;;;5.25;2.67;;;;;;;27.26;44.06;99642.63;4501149;31;34566;-66
2023/07/06 08:29:50;;;;;;;5.85;2.55;;;;;;;27.26;44.06;99633.59;4500836;31;34998;-69
2023/07/06 08:32:19;;;;;;;4.75;2.72;;;;;;;27.27;44.08;99640.72;4500815;31;33860;-65
2023/07/06 08:34:47;;;;;;;6.82;2.83;;;;;;;27.27;44.06;99640.72;4500795;31;33366;-66
2023/07/06 08:37:18;;;;;;;5.07;2.62;;;;;;;27.27;44.05;99647.00;4500920;31;33937;-65
2023/07/06 08:39:46;;;;;;;5.50;2.33;;;;;;;27.28;44.05;99650.56;4500901;31;34697;-68
2023/07/06 08:42:15;;;;;;;5.78;2.75;;;;;;;27.28;44.05;99643.22;4500738;31;33416;-66
2023/07/06 08:44:46;;;;;;;5.97;2.37;;;;;;;27.28;44.04;99645.97;4499573;31;33147;-69
2023/07/06 08:47:15;;;;;;;6.57;2.70;;;;;;;27.28;44.04;99645.97;4486859;31;34042;-69
2023/07/06 08:49:43;;;;;;;7.50;2.70;;;;;;;27.30;44.03;99648.44;4500844;31;33557;-66
2023/07/06 08:52:12;;;;;;;5.90;2.40;;;;;;;27.30;44.03;99653.91;4499689;31;34082;-72
2023/07/06 08:54:41;;;;;;;6.57;2.87;;;;;;;27.28;44.05;99640.47;4500739;31;33734;-68
2023/07/06 08:57:17;;;;;;;4.90;2.60;;;;;;;27.30;44.01;99634.72;4486869;31;33629;-66
2023/07/06 08:59:48;;;;;;;6.30;2.40;;;;;;;27.30;44.03;99635.56;4487032;31;33774;-66
2023/07/06 09:02:17;;;;;;;5.57;2.30;;;;;;;27.29;44.05;99633.09;4500680;31;34020;-69
2023/07/06 09:04:48;;;;;;;4.45;2.42;;;;;;;27.29;44.02;99633.91;4500817;31;33068;-76
2023/07/06 09:07:17;;;;;;;5.20;2.40;;;;;;;27.29;44.03;99631.16;4487063;31;34074;-66
2023/07/06 09:09:47;;;;;;;6.07;2.67;;;;;;;27.29;44.03;99639.38;4500570;31;34604;-72
2023/07/06 09:12:19;;;;;;;4.93;2.25;;;;;;;27.31;44.01;99637.19;4499306;31;34433;-76
2023/07/06 09:14:53;;;;;;;4.22;2.20;;;;;;;27.32;44.02;99635.28;4499238;31;34270;-71
2023/07/06 09:17:21;;;;;;;6.57;3.10;;;;;;;27.31;44.03;99636.38;4499520;31;34307;-68
2023/07/06 09:19:50;;;;;;;5.93;2.58;;;;;;;27.31;44.03;99639.12;4500621;31;34129;-66
2023/07/06 09:22:18;;;;;;;5.20;2.50;;;;;;;27.31;44.04;99639.12;4500583;31;33430;-76
2023/07/06 09:24:45;;;;;;;5.12;2.53;;;;;;;27.31;44.02;99639.94;4499445;31;33107;-66
2023/07/06 09:27:21;;;;;;;4.70;2.20;;;;;;;27.32;43.99;99633.38;4500567;31;34750;-71
2023/07/06 09:30:05;;;;;;;4.60;2.35;;;;;;;27.33;44.00;99639.72;4500841;31;33649;-74
2023/07/06 09:32:34;;;;;;;4.32;2.30;;;;;;;27.34;43.98;99633.97;4499643;31;34616;-67
2023/07/06 09:35:08;;;;;;;3.75;2.12;;;;;;;27.34;44.00;99641.34;4500417;31;33865;-67
2023/07/06 09:37:46;;;;;;;6.50;2.58;;;;;;;27.32;44.00;99649.81;4499235;31;34678;-66
2023/07/06 09:40:14;;;;;;;4.50;2.40;;;;;;;27.34;43.98;99644.09;4500575;31;33921;-66
2023/07/06 09:42:59;;;;;;;4.78;2.10;;;;;;;27.33;44.00;99647.94;4500515;31;33461;-72
2023/07/06 09:45:29;;;;;;;3.72;2.08;;;;;;;27.33;43.99;99651.50;4500407;31;33535;-67
2023/07/06 09:48:01;;;;;;;4.15;2.45;;;;;;;27.32;44.00;99655.28;4499484;31;33773;-67
2023/07/06 09:50:39;;;;;;;5.60;2.53;;;;;;;27.35;43.98;99663.00;4500485;31;34060;-66
2023/07/06 09:53:11;;;;;;;4.57;2.17;;;;;;;27.34;44.00;99647.66;4486948;31;33797;-66
2023/07/06 09:55:38;;;;;;;3.90;2.30;;;;;;;27.34;44.02;99646.84;4486407;31;34221;-66
2023/07/06 09:58:09;;;;;;;4.25;2.15;;;;;;;27.34;43.99;99646.84;4498985;31;34354;-66
2023/07/06 10:00:42;;;;;;;4.78;2.75;;;;;;;27.34;44.01;99653.13;4486621;31;33320;-65
2023/07/06 10:03:37;;;;;;;4.15;2.22;;;;;;;27.35;44.00;99651.22;4498905;31;34949;-66
2023/07/06 10:06:04;;;;;;;4.72;2.33;;;;;;;27.36;43.99;99650.97;4488891;31;34444;-76
2023/07/06 10:08:40;;;;;;;4.35;2.17;;;;;;;27.35;43.99;99651.22;4498893;31;33623;-67
2023/07/06 10:11:25;;;;;;;5.70;2.30;;;;;;;27.35;44.01;99653.97;4499185;31;34009;-66
2023/07/06 10:14:09;;;;;;;4.68;2.20;;;;;;;27.38;43.97;99647.97;4498855;31;34136;-67
2023/07/06 10:16:47;;;;;;;4.65;2.10;;;;;;;27.37;43.98;99649.03;4486573;31;32979;-67
2023/07/06 10:19:20;;;;;;;4.20;2.37;;;;;;;27.35;44.02;99640.25;4499020;31;33681;-66
2023/07/06 10:22:20;;;;;;;4.18;2.05;;;;;;;27.34;44.02;99642.19;4500252;31;33229;-75
2023/07/06 10:24:56;;;;;;;5.22;2.55;;;;;;;27.38;43.98;99637.03;4500320;31;33909;-66
2023/07/06 10:27:27;;;;;;;3.92;1.90;;;;;;;27.37;44.04;99633.47;4498841;31;33204;-65
2023/07/06 10:30:01;;;;;;;5.00;2.08;;;;;;;27.34;44.07;99631.22;4498755;31;33924;-68
2023/07/06 10:32:37;;;;;;;5.00;2.00;;;;;;;27.34;44.06;99624.91;4499249;31;33933;-66
2023/07/06 10:35:11;;;;;;;3.80;2.00;;;;;;;27.35;44.05;99629.31;4486151;31;34684;-66
2023/07/06 10:37:42;;;;;;;5.22;2.40;;;;;;;27.35;44.06;99629.31;4486579;31;33174;-65
2023/07/06 10:40:10;;;;;;;5.03;2.25;;;;;;;27.36;44.03;99626.31;4498703;31;33343;-74
2023/07/06 10:42:42;;;;;;;5.07;2.58;;;;;;;27.35;44.05;99624.66;4499988;31;33987;-66
2023/07/06 10:45:35;;;;;;;4.22;1.95;;;;;;;27.35;44.06;99630.13;4498872;31;33623;-65
2023/07/06 10:48:10;;;;;;;5.47;2.00;;;;;;;27.38;44.03;99629.63;4500064;31;33117;-69
2023/07/06 10:50:49;;;;;;;4.78;2.20;;;;;;;27.37;44.03;99638.94;4499844;31;34011;-66
2023/07/06 10:53:37;;;;;;;4.37;2.12;;;;;;;27.37;44.02;99638.94;4500042;31;33811;-66
2023/07/06 10:56:13;;;;;;;4.85;2.47;;;;;;;27.39;44.01;99639.50;4486853;31;35099;-73
2023/07/06 10:58:55;;;;;;;4.53;2.28;;;;;;;27.36;44.05;99640.00;4499826;31;34032;-66
2023/07/06 11:01:30;;;;;;;4.12;2.25;;;;;;;27.39;44.04;99644.16;4498734;31;33799;-65
2023/07/06 11:04:00;;;;;;;3.95;1.98;;;;;;;27.38;44.06;99642.50;4486118;31;34152;-71
2023/07/06 11:06:47;;;;;;;;;;;;;;;27.37;44.06;99649.03;4499903;31;34490;-68
2023/07/06 11:09:16;;;;;;;3.72;1.98;;;;;;;27.48;43.84;99647.28;4499863;31;33469;-65
2023/07/06 11:11:51;;;;;;;5.40;2.80;;;;;;;27.39;44.02;99650.47;4498396;31;34065;-71
2023/07/06 11:14:23;;;;;;;3.58;1.87;;;;;;;27.39;44.06;99633.19;4499629;31;33938;-67
2023/07/06 11:17:03;;;;;;;3.92;2.05;;;;;;;27.36;44.10;99640.00;4499352;31;33520;-65
2023/07/06 11:19:34;;;;;;;4.72;2.20;;;;;;;27.37;44.09;99646.31;4499444;31;33421;-67
2023/07/06 11:22:07;;;;;;;4.53;1.77;;;;;;;27.36;44.10;99634.53;4485630;31;33557;-65
2023/07/06 11:24:41;;;;;;;3.12;1.75;;;;;;;27.37;44.08;99632.59;4498329;31;33623;-66
2023/07/06 11:27:29;;;;;;;4.03;2.12;;;;;;;27.37;44.08;99633.47;4485611;31;33787;-68
2023/07/06 11:30:18;;;;;;;3.65;1.85;;;;;;;27.39;44.06;99630.44;4498238;31;33105;-65
2023/07/06 11:33:09;;;;;;;4.07;2.00;;;;;;;27.41;44.03;99620.06;4498046;31;34695;-68
2023/07/06 11:35:39;;;;;;;4.12;2.40;;;;;;;27.39;44.07;99624.97;4499193;31;34929;-65
2023/07/06 11:38:19;;;;;;;3.37;2.03;;;;;;;27.38;44.08;99623.31;4499079;31;33655;-66
2023/07/06 11:41:10;;;;;;;4.00;1.90;;;;;;;27.37;44.09;99619.75;4499260;31;33427;-66
2023/07/06 11:43:44;;;;;;;5.55;2.20;;;;;;;27.42;44.02;99627.22;4498010;31;34827;-67
2023/07/06 11:46:55;;;;;;;3.97;2.12;;;;;;;27.40;44.06;99621.13;4499090;31;35072;-75
2023/07/06 11:49:42;;;;;;;5.62;2.35;;;;;;;27.41;44.03;99629.09;4498975;31;34724;-67
2023/07/06 11:52:15;;;;;;;3.37;2.00;;;;;;;27.39;44.06;99622.22;4499010;31;33511;-67
2023/07/06 11:54:49;;;;;;;4.12;1.87;;;;;;;27.39;44.08;99628.53;4485066;31;33627;-66